Time;durP1;ratioP1;P1;durP2;ratioP2;P2;SDS_P1;SDS_P2;PMS_P1;PMS_P2;Temp;Humidity;BMP_temperature;BMP_pressure;BME280_temperature;BME280_humidity;BME280_pressure;Samples;Min_cycle;Max_cycle;Signal;HPM_P1;HPM_P2
2021/11/24 00:00:48;;;;;;;31.50;20.40;;;;;;;;;;5050664;28;20052;-82
2021/11/24 00:03:14;;;;;;;29.45;20.60;;;;;;;;;;5050534;28;20045;-84
2021/11/24 00:05:41;;;;;;;28.45;20.92;;;;;;;;;;5064173;28;20127;-86
2021/11/24 00:08:07;;;;;;;30.20;20.95;;;;;;;;;;5035910;28;20044;-87
2021/11/24 00:10:34;;;;;;;23.58;18.95;;;;;;;;;;5071468;28;20041;-81
2021/11/24 00:13:01;;;;;;;29.95;16.67;;;;;;;;;;5078122;28;20053;-84
2021/11/24 00:15:27;;;;;;;21.58;14.65;;;;;;;;;;5069300;28;20105;-77
2021/11/24 00:17:53;;;;;;;22.50;13.93;;;;;;;;;;5063449;28;20048;-80
2021/11/24 00:20:19;;;;;;;20.80;13.10;;;;;;;;;;5062547;28;20114;-79
2021/11/24 00:22:45;;;;;;;20.63;13.70;;;;;;;;;;5065268;28;20052;-77
2021/11/24 00:25:12;;;;;;;17.95;12.32;;;;;;;;;;5088944;28;20072;-77
2021/11/24 00:27:38;;;;;;;20.67;11.73;;;;;;;;;;5088176;28;20084;-80
2021/11/24 00:30:05;;;;;;;24.02;11.75;;;;;;;;;;5066972;28;20059;-81
2021/11/24 00:32:31;;;;;;;19.05;11.95;;;;;;;;;;5057351;28;20620;-80
2021/11/24 00:34:58;;;;;;;20.02;13.35;;;;;;;;;;5068039;28;20045;-80
2021/11/24 00:37:24;;;;;;;12.63;8.98;;;;;;;;;;5059284;28;20048;-80
2021/11/24 00:39:50;;;;;;;12.60;7.55;;;;;;;;;;5065960;28;20041;-81
2021/11/24 00:42:16;;;;;;;11.15;7.70;;;;;;;;;;5042824;28;20475;-77
2021/11/24 00:44:42;;;;;;;16.05;9.27;;;;;;;;;;5050674;28;20051;-79
2021/11/24 00:47:09;;;;;;;16.60;8.68;;;;;;;;;;5067597;28;20316;-81
2021/11/24 00:49:35;;;;;;;13.82;8.70;;;;;;;;;;5049619;28;20048;-80
2021/11/24 00:52:02;;;;;;;11.45;7.10;;;;;;;;;;5071643;28;20044;-81
2021/11/24 00:54:28;;;;;;;9.85;6.82;;;;;;;;;;5059519;28;20045;-78
2021/11/24 00:56:54;;;;;;;10.45;6.53;;;;;;;;;;5064496;28;20052;-82
2021/11/24 00:59:20;;;;;;;11.32;6.10;;;;;;;;;;5070272;28;20052;-78
2021/11/24 01:01:46;;;;;;;13.32;6.93;;;;;;;;;;5064757;28;20127;-79
2021/11/24 01:04:12;;;;;;;9.70;5.95;;;;;;;;;;5069597;28;20063;-78
2021/11/24 01:06:38;;;;;;;13.68;6.43;;;;;;;;;;5090810;28;20471;-80
2021/11/24 01:09:04;;;;;;;10.10;6.38;;;;;;;;;;5067345;28;20423;-81
2021/11/24 01:11:31;;;;;;;9.85;6.40;;;;;;;;;;5046543;28;20056;-81
2021/11/24 01:13:58;;;;;;;13.35;5.95;;;;;;;;;;5064210;28;20044;-81
2021/11/24 01:16:24;;;;;;;13.13;7.93;;;;;;;;;;5068730;28;20479;-81
2021/11/24 01:18:50;;;;;;;12.35;7.10;;;;;;;;;;5064129;28;20067;-81
2021/11/24 01:21:16;;;;;;;12.52;6.90;;;;;;;;;;5062423;28;20044;-78
2021/11/24 01:23:43;;;;;;;11.00;6.40;;;;;;;;;;5065208;28;20048;-80
2021/11/24 01:26:09;;;;;;;12.30;6.88;;;;;;;;;;5052335;28;20131;-77
2021/11/24 01:28:35;;;;;;;11.20;6.90;;;;;;;;;;5057329;28;20060;-81
2021/11/24 01:31:02;;;;;;;10.35;6.00;;;;;;;;;;5067807;28;20487;-78
2021/11/24 01:33:28;;;;;;;7.85;5.93;;;;;;;;;;5067751;28;20039;-77
2021/11/24 01:35:54;;;;;;;9.18;5.68;;;;;;;;;;5093578;28;20083;-81
2021/11/24 01:38:20;;;;;;;5.50;4.88;;;;;;;;;;5090741;28;20546;-77
2021/11/24 01:40:46;;;;;;;8.10;4.32;;;;;;;;;;5094161;28;20440;-80
2021/11/24 01:43:12;;;;;;;5.95;4.20;;;;;;;;;;5079362;28;21427;-79
2021/11/24 01:45:38;;;;;;;5.70;4.55;;;;;;;;;;5066172;28;20044;-79
2021/11/24 01:48:05;;;;;;;8.10;4.68;;;;;;;;;;5079922;28;20041;-80
2021/11/24 01:50:31;;;;;;;7.38;4.28;;;;;;;;;;5092325;28;20045;-80
2021/11/24 01:52:57;;;;;;;9.57;5.03;;;;;;;;;;5062423;28;20040;-81
2021/11/24 01:55:23;;;;;;;9.95;5.25;;;;;;;;;;5064788;28;20483;-80
2021/11/24 01:57:50;;;;;;;7.60;4.60;;;;;;;;;;5099568;28;20052;-80
2021/11/24 02:00:21;;;;;;;6.88;4.10;;;;;;;;;;5068903;28;20052;-80
2021/11/24 02:02:47;;;;;;;7.97;4.90;;;;;;;;;;5061630;28;20059;-80
2021/11/24 02:05:14;;;;;;;9.50;4.50;;;;;;;;;;5067380;28;20049;-79
2021/11/24 02:07:40;;;;;;;7.53;4.45;;;;;;;;;;5066230;28;20098;-79
2021/11/24 02:10:06;;;;;;;5.88;4.70;;;;;;;;;;5063891;28;20044;-80
2021/11/24 02:12:32;;;;;;;6.82;4.78;;;;;;;;;;5049070;28;20071;-80
2021/11/24 02:14:58;;;;;;;8.95;4.65;;;;;;;;;;5097947;28;20383;-80
2021/11/24 02:17:24;;;;;;;6.82;4.00;;;;;;;;;;5046109;28;20049;-77
2021/11/24 02:19:51;;;;;;;5.47;3.88;;;;;;;;;;5043055;28;20057;-80
2021/11/24 02:22:17;;;;;;;7.22;4.28;;;;;;;;;;5082203;28;20048;-80
2021/11/24 02:24:44;;;;;;;7.53;4.35;;;;;;;;;;5060758;28;20055;-80
2021/11/24 02:27:11;;;;;;;5.07;4.28;;;;;;;;;;5067115;28;20059;-80
2021/11/24 02:29:39;;;;;;;8.90;4.38;;;;;;;;;;5046731;28;20048;-78
2021/11/24 02:32:05;;;;;;;9.32;4.40;;;;;;;;;;5070835;28;20041;-79
2021/11/24 02:34:32;;;;;;;10.15;4.13;;;;;;;;;;5067124;28;20048;-80
2021/11/24 02:36:58;;;;;;;9.50;3.85;;;;;;;;;;5066219;28;20109;-78
2021/11/24 02:39:24;;;;;;;6.75;3.83;;;;;;;;;;5057706;28;20041;-77
2021/11/24 02:41:50;;;;;;;7.63;3.88;;;;;;;;;;5048218;28;20044;-80
2021/11/24 02:44:16;;;;;;;8.65;3.75;;;;;;;;;;5047676;28;20052;-80
2021/11/24 02:46:43;;;;;;;7.15;4.07;;;;;;;;;;5062376;28;20041;-77
2021/11/24 02:49:09;;;;;;;5.18;3.38;;;;;;;;;;5054159;28;20472;-78
2021/11/24 02:51:35;;;;;;;9.18;4.10;;;;;;;;;;5066907;28;20118;-80
2021/11/24 02:54:01;;;;;;;6.40;3.50;;;;;;;;;;5048050;28;20040;-82
2021/11/24 02:56:27;;;;;;;7.75;3.67;;;;;;;;;;5069109;28;20067;-77
2021/11/24 02:58:53;;;;;;;4.38;3.20;;;;;;;;;;5074410;28;20098;-77
2021/11/24 03:01:19;;;;;;;4.93;3.35;;;;;;;;;;5070423;28;20047;-81
2021/11/24 03:03:45;;;;;;;4.85;3.67;;;;;;;;;;5051356;28;20048;-80
2021/11/24 03:06:11;;;;;;;7.07;4.20;;;;;;;;;;5069641;28;20052;-80
2021/11/24 03:08:37;;;;;;;6.97;2.95;;;;;;;;;;5069813;28;20115;-80
2021/11/24 03:11:03;;;;;;;5.15;3.47;;;;;;;;;;5035491;28;20127;-80
2021/11/24 03:13:30;;;;;;;5.90;3.20;;;;;;;;;;5035308;28;20047;-77
2021/11/24 03:15:56;;;;;;;8.18;3.75;;;;;;;;;;5052440;28;20044;-81
2021/11/24 03:18:22;;;;;;;7.20;2.80;;;;;;;;;;5052320;28;20395;-80
2021/11/24 03:20:48;;;;;;;5.30;2.80;;;;;;;;;;5066868;28;20183;-80
2021/11/24 03:23:14;;;;;;;5.38;2.92;;;;;;;;;;5051123;28;20056;-80
2021/11/24 03:25:40;;;;;;;7.38;3.05;;;;;;;;;;5076294;28;21676;-80
2021/11/24 03:28:06;;;;;;;4.03;2.63;;;;;;;;;;5052954;28;20743;-80
2021/11/24 03:30:33;;;;;;;5.05;3.20;;;;;;;;;;5067244;28;20053;-80
2021/11/24 03:33:01;;;;;;;6.00;3.70;;;;;;;;;;5068931;28;20040;-79
2021/11/24 03:35:28;;;;;;;7.20;3.53;;;;;;;;;;5068322;28;20047;-80
2021/11/24 03:37:54;;;;;;;5.97;3.83;;;;;;;;;;5049284;28;20051;-79
2021/11/24 03:40:22;;;;;;;6.50;3.88;;;;;;;;;;5064831;28;20514;-80
2021/11/24 03:42:49;;;;;;;7.45;4.47;;;;;;;;;;5052167;28;20032;-80
2021/11/24 03:45:16;;;;;;;10.57;5.55;;;;;;;;;;5050461;28;20056;-78
2021/11/24 03:47:43;;;;;;;16.55;7.80;;;;;;;;;;5069866;28;20483;-80
2021/11/24 03:50:09;;;;;;;17.70;7.55;;;;;;;;;;5068839;28;20041;-80
2021/11/24 03:52:35;;;;;;;11.80;5.28;;;;;;;;;;5067412;28;20052;-81
2021/11/24 03:55:01;;;;;;;9.93;5.13;;;;;;;;;;5091846;28;20053;-80
2021/11/24 03:57:27;;;;;;;13.77;4.97;;;;;;;;;;5071568;28;20342;-83
2021/11/24 03:59:53;;;;;;;10.57;4.45;;;;;;;;;;5046977;28;20047;-78
2021/11/24 04:02:19;;;;;;;6.15;3.55;;;;;;;;;;5078716;28;20153;-82
2021/11/24 04:04:45;;;;;;;6.22;3.13;;;;;;;;;;5065864;28;20163;-82
2021/11/24 04:07:11;;;;;;;6.55;3.28;;;;;;;;;;5051930;28;20064;-82
2021/11/24 04:09:38;;;;;;;4.15;2.45;;;;;;;;;;5028111;28;20052;-82
2021/11/24 04:12:05;;;;;;;3.97;2.75;;;;;;;;;;5064508;28;20044;-81
2021/11/24 04:14:31;;;;;;;4.80;2.33;;;;;;;;;;5049780;28;20052;-80
2021/11/24 04:16:57;;;;;;;6.47;2.70;;;;;;;;;;5051586;28;20040;-82
2021/11/24 04:19:23;;;;;;;6.00;2.65;;;;;;;;;;5064517;28;20047;-82
2021/11/24 04:21:49;;;;;;;7.15;2.78;;;;;;;;;;5065996;28;20048;-82
2021/11/24 04:24:15;;;;;;;4.68;2.25;;;;;;;;;;5066004;28;20499;-79
2021/11/24 04:26:41;;;;;;;3.97;2.58;;;;;;;;;;5067890;28;20376;-82
2021/11/24 04:29:07;;;;;;;3.30;2.10;;;;;;;;;;5049591;28;20127;-81
2021/11/24 04:31:33;;;;;;;7.03;2.67;;;;;;;;;;5054359;28;20036;-81
2021/11/24 04:33:59;;;;;;;6.95;2.40;;;;;;;;;;5035699;28;20052;-81
2021/11/24 04:36:25;;;;;;;7.78;2.63;;;;;;;;;;5068503;28;20094;-81
2021/11/24 04:38:51;;;;;;;4.85;2.53;;;;;;;;;;5051653;28;20403;-81
2021/11/24 04:41:17;;;;;;;6.03;3.08;;;;;;;;;;5050487;28;20498;-81
2021/11/24 04:43:46;;;;;;;5.40;2.40;;;;;;;;;;5065427;28;20044;-77
2021/11/24 04:46:14;;;;;;;4.78;2.50;;;;;;;;;;5070676;28;20059;-79
2021/11/24 04:48:40;;;;;;;7.40;2.35;;;;;;;;;;5064479;28;20123;-79
2021/11/24 04:51:06;;;;;;;4.30;2.60;;;;;;;;;;5088677;28;20060;-80
2021/11/24 04:53:32;;;;;;;4.03;2.92;;;;;;;;;;5064402;28;20040;-81
2021/11/24 04:55:58;;;;;;;8.90;2.92;;;;;;;;;;5067598;28;20628;-78
2021/11/24 04:58:24;;;;;;;4.45;3.00;;;;;;;;;;5054399;28;20056;-80
2021/11/24 05:00:50;;;;;;;5.30;3.00;;;;;;;;;;5092301;28;20072;-81
2021/11/24 05:03:16;;;;;;;7.55;3.10;;;;;;;;;;5072209;28;20470;-80
2021/11/24 05:05:42;;;;;;;9.70;3.20;;;;;;;;;;5065233;28;20452;-80
2021/11/24 05:08:09;;;;;;;8.02;3.20;;;;;;;;;;5090188;28;20060;-80
2021/11/24 05:10:35;;;;;;;4.15;2.88;;;;;;;;;;5058605;28;20048;-80
2021/11/24 05:13:01;;;;;;;6.85;2.60;;;;;;;;;;5077562;28;20078;-80
2021/11/24 05:15:32;;;;;;;6.30;3.35;;;;;;;;;;5067031;28;20431;-80
2021/11/24 05:18:07;;;;;;;6.45;2.97;;;;;;;;;;5053102;28;20044;-80
2021/11/24 05:20:34;;;;;;;6.35;3.13;;;;;;;;;;5068639;28;20483;-81
2021/11/24 05:23:04;;;;;;;7.10;2.70;;;;;;;;;;5038214;28;20055;-81
2021/11/24 05:25:30;;;;;;;4.88;2.47;;;;;;;;;;5066042;28;20067;-80
2021/11/24 05:27:56;;;;;;;11.30;2.50;;;;;;;;;;5076045;28;20069;-80
2021/11/24 05:30:23;;;;;;;5.03;2.85;;;;;;;;;;5075400;28;20036;-80
2021/11/24 05:32:49;;;;;;;5.13;3.05;;;;;;;;;;5070636;28;20513;-82
2021/11/24 05:35:20;;;;;;;4.55;2.85;;;;;;;;;;5066199;28;20628;-81
2021/11/24 05:37:47;;;;;;;4.38;2.72;;;;;;;;;;5059965;28;20139;-83
2021/11/24 05:40:13;;;;;;;3.60;2.35;;;;;;;;;;5063749;28;20045;-80
2021/11/24 05:42:45;;;;;;;4.25;2.53;;;;;;;;;;5061686;28;20052;-76
2021/11/24 05:45:26;;;;;;;7.65;3.22;;;;;;;;;;5063786;28;20176;-83
2021/11/24 05:47:55;;;;;;;4.60;2.60;;;;;;;;;;5070993;28;20071;-85
2021/11/24 05:50:25;;;;;;;9.77;3.90;;;;;;;;;;5048659;28;20040;-85
2021/11/24 05:52:51;;;;;;;10.07;3.10;;;;;;;;;;5088045;28;20057;-89
2021/11/24 05:55:17;;;;;;;4.13;2.65;;;;;;;;;;5079397;28;20105;-89
2021/11/24 05:57:44;;;;;;;8.20;3.70;;;;;;;;;;5056163;28;20041;-79
2021/11/24 06:00:10;;;;;;;5.68;3.08;;;;;;;;;;5060198;28;20041;-79
2021/11/24 06:02:36;;;;;;;4.18;2.70;;;;;;;;;;5073936;28;20052;-81
2021/11/24 06:05:02;;;;;;;4.90;3.20;;;;;;;;;;5052668;28;20047;-82
2021/11/24 06:07:29;;;;;;;4.50;2.50;;;;;;;;;;5068217;28;20075;-79
2021/11/24 06:09:55;;;;;;;7.05;2.42;;;;;;;;;;5057806;28;20076;-78
2021/11/24 06:12:21;;;;;;;4.13;2.22;;;;;;;;;;5064986;28;20041;-77
2021/11/24 06:14:47;;;;;;;4.70;2.13;;;;;;;;;;5055820;28;20089;-78
2021/11/24 06:17:13;;;;;;;7.20;2.75;;;;;;;;;;5097731;28;20055;-78
2021/11/24 06:19:39;;;;;;;5.57;2.83;;;;;;;;;;5064511;28;20053;-77
2021/11/24 06:22:05;;;;;;;4.55;2.65;;;;;;;;;;5060000;28;20055;-78
2021/11/24 06:24:31;;;;;;;11.90;3.08;;;;;;;;;;5063118;28;20041;-78
2021/11/24 06:26:57;;;;;;;5.22;3.40;;;;;;;;;;5064081;28;20052;-78
2021/11/24 06:29:23;;;;;;;9.63;3.10;;;;;;;;;;5048225;28;20392;-78
2021/11/24 06:31:49;;;;;;;5.65;3.08;;;;;;;;;;5068860;28;20041;-77
2021/11/24 06:34:16;;;;;;;6.00;2.78;;;;;;;;;;5061184;28;20891;-78
2021/11/24 06:36:42;;;;;;;7.40;2.83;;;;;;;;;;5087351;28;20048;-83
2021/11/24 06:39:08;;;;;;;4.43;3.03;;;;;;;;;;5043781;28;20051;-82
2021/11/24 06:41:34;;;;;;;4.80;2.15;;;;;;;;;;5052599;28;20049;-79
2021/11/24 06:44:00;;;;;;;3.58;2.58;;;;;;;;;;5053224;28;20045;-81
2021/11/24 06:46:26;;;;;;;4.20;2.42;;;;;;;;;;5057122;28;20136;-80
2021/11/24 06:48:52;;;;;;;5.50;2.55;;;;;;;;;;5096815;28;20041;-77
2021/11/24 06:51:18;;;;;;;5.25;2.85;;;;;;;;;;5048696;28;20063;-79
2021/11/24 06:53:45;;;;;;;4.20;2.20;;;;;;;;;;5067402;28;20511;-84
2021/11/24 06:56:11;;;;;;;7.13;2.63;;;;;;;;;;5034894;28;20106;-79
2021/11/24 06:58:37;;;;;;;7.68;3.13;;;;;;;;;;5067733;28;20047;-79
2021/11/24 07:01:03;;;;;;;8.05;3.55;;;;;;;;;;5073474;28;20056;-78
2021/11/24 07:03:30;;;;;;;3.72;2.63;;;;;;;;;;5093754;28;20107;-79
2021/11/24 07:05:56;;;;;;;5.10;3.10;;;;;;;;;;5065054;28;20477;-78
2021/11/24 07:08:22;;;;;;;7.00;3.17;;;;;;;;;;5062558;28;20041;-79
2021/11/24 07:10:48;;;;;;;7.60;2.70;;;;;;;;;;5062127;28;20041;-76
2021/11/24 07:13:15;;;;;;;4.00;2.53;;;;;;;;;;5069415;28;20067;-79
2021/11/24 07:15:41;;;;;;;9.38;2.80;;;;;;;;;;5079307;28;20067;-79
2021/11/24 07:18:07;;;;;;;6.60;3.10;;;;;;;;;;5093944;28;20048;-79
2021/11/24 07:20:33;;;;;;;8.70;3.15;;;;;;;;;;5086075;28;20057;-79
2021/11/24 07:22:59;;;;;;;4.00;2.67;;;;;;;;;;5063763;28;20045;-78
2021/11/24 07:25:26;;;;;;;9.68;3.33;;;;;;;;;;5075330;28;20400;-79
2021/11/24 07:27:52;;;;;;;9.25;3.03;;;;;;;;;;5055290;28;20502;-76
2021/11/24 07:30:19;;;;;;;7.32;3.10;;;;;;;;;;5094453;27;20498;-79
2021/11/24 07:32:45;;;;;;;6.65;3.17;;;;;;;;;;5066955;28;20128;-79
2021/11/24 07:35:12;;;;;;;4.10;3.28;;;;;;;;;;5097033;28;20206;-79
2021/11/24 07:37:38;;;;;;;8.65;2.95;;;;;;;;;;5051299;28;20052;-77
2021/11/24 07:40:06;;;;;;;6.03;3.50;;;;;;;;;;5049709;28;20476;-78
2021/11/24 07:42:32;;;;;;;10.00;3.80;;;;;;;;;;5069162;28;20131;-79
2021/11/24 07:44:58;;;;;;;13.75;3.45;;;;;;;;;;5091311;28;20051;-79
2021/11/24 07:47:24;;;;;;;7.57;3.92;;;;;;;;;;5067999;28;20069;-78
2021/11/24 07:49:50;;;;;;;6.25;3.17;;;;;;;;;;5050974;28;20489;-76
2021/11/24 07:52:16;;;;;;;9.13;3.33;;;;;;;;;;5066847;28;20048;-78
2021/11/24 07:54:43;;;;;;;3.90;2.67;;;;;;;;;;5068419;28;20055;-79
2021/11/24 07:57:09;;;;;;;4.40;2.80;;;;;;;;;;5082831;28;20478;-78
2021/11/24 07:59:36;;;;;;;8.35;3.38;;;;;;;;;;5062176;28;20492;-79
2021/11/24 08:02:02;;;;;;;7.63;3.15;;;;;;;;;;5063116;28;20041;-79
2021/11/24 08:04:28;;;;;;;11.00;3.65;;;;;;;;;;5066915;28;20428;-78
2021/11/24 08:06:59;;;;;;;5.40;3.25;;;;;;;;;;5067001;28;20044;-76
2021/11/24 08:09:25;;;;;;;9.40;3.38;;;;;;;;;;5098760;28;20052;-78
2021/11/24 08:11:51;;;;;;;7.45;3.30;;;;;;;;;;5064985;28;20033;-78
2021/11/24 08:14:17;;;;;;;7.68;3.20;;;;;;;;;;5066319;28;20063;-78
2021/11/24 08:16:43;;;;;;;6.72;3.35;;;;;;;;;;5080372;28;20048;-77
2021/11/24 08:19:10;;;;;;;7.60;3.30;;;;;;;;;;5047970;28;20052;-78
2021/11/24 08:21:36;;;;;;;7.22;3.30;;;;;;;;;;5043816;28;20531;-77
2021/11/24 08:24:02;;;;;;;6.75;3.08;;;;;;;;;;5065178;28;20119;-78
2021/11/24 08:26:28;;;;;;;8.30;3.60;;;;;;;;;;5049253;28;20376;-78
2021/11/24 08:28:54;;;;;;;6.63;3.55;;;;;;;;;;5064879;28;20476;-77
2021/11/24 08:31:21;;;;;;;11.25;3.47;;;;;;;;;;5079190;28;20048;-78
2021/11/24 08:33:47;;;;;;;10.23;3.75;;;;;;;;;;5050766;28;20487;-78
2021/11/24 08:36:15;;;;;;;5.93;3.30;;;;;;;;;;5049688;28;20052;-78
2021/11/24 08:38:41;;;;;;;4.47;3.10;;;;;;;;;;5048955;28;20135;-77
2021/11/24 08:41:10;;;;;;;8.63;3.25;;;;;;;;;;5061957;28;20040;-79
2021/11/24 08:43:36;;;;;;;12.60;2.70;;;;;;;;;;5092984;28;20170;-78
2021/11/24 08:46:02;;;;;;;11.07;3.08;;;;;;;;;;5076434;28;20051;-78
2021/11/24 08:48:28;;;;;;;10.18;3.70;;;;;;;;;;5048794;28;20487;-79
2021/11/24 08:50:54;;;;;;;7.18;3.78;;;;;;;;;;5063363;28;20044;-77
2021/11/24 08:53:22;;;;;;;4.63;3.13;;;;;;;;;;5052492;28;20048;-79
2021/11/24 08:55:48;;;;;;;9.00;3.63;;;;;;;;;;5080567;28;20045;-78
2021/11/24 08:58:14;;;;;;;8.90;3.60;;;;;;;;;;5065544;28;20499;-78
2021/11/24 09:00:40;;;;;;;6.15;3.30;;;;;;;;;;5065341;28;20033;-79
2021/11/24 09:03:08;;;;;;;6.05;2.83;;;;;;;;;;5071507;28;20044;-78
2021/11/24 09:05:34;;;;;;;9.02;3.20;;;;;;;;;;5081613;28;20045;-78
2021/11/24 09:08:00;;;;;;;5.72;2.40;;;;;;;;;;5065850;28;20045;-78
2021/11/24 09:10:26;;;;;;;4.38;3.22;;;;;;;;;;5075617;28;20472;-77
2021/11/24 09:12:53;;;;;;;4.93;2.42;;;;;;;;;;5064570;28;20094;-78
2021/11/24 09:15:19;;;;;;;7.63;2.75;;;;;;;;;;5043353;28;20044;-78
2021/11/24 09:17:46;;;;;;;4.10;2.65;;;;;;;;;;5094457;28;20135;-77
2021/11/24 09:20:12;;;;;;;5.43;2.40;;;;;;;;;;5071986;28;20056;-77
2021/11/24 09:22:42;;;;;;;9.45;2.78;;;;;;;;;;5044638;28;20478;-77
2021/11/24 09:25:12;;;;;;;6.57;2.78;;;;;;;;;;5048333;28;20063;-76
2021/11/24 09:27:46;;;;;;;6.50;2.85;;;;;;;;;;5065229;28;20048;-76
2021/11/24 09:30:13;;;;;;;6.85;2.88;;;;;;;;;;5074294;28;20037;-79
2021/11/24 09:32:41;;;;;;;6.13;2.58;;;;;;;;;;5082579;28;20122;-81
2021/11/24 09:35:08;;;;;;;4.97;2.30;;;;;;;;;;5056163;28;20511;-78
2021/11/24 09:37:34;;;;;;;5.38;3.20;;;;;;;;;;5075413;28;20120;-79
2021/11/24 09:40:01;;;;;;;5.97;2.47;;;;;;;;;;5088404;28;20044;-76
2021/11/24 09:42:28;;;;;;;5.18;2.80;;;;;;;;;;5090626;28;20135;-81
2021/11/24 09:44:56;;;;;;;6.88;3.03;;;;;;;;;;5047656;28;20541;-78
2021/11/24 09:47:22;;;;;;;5.10;2.67;;;;;;;;;;5059041;28;20127;-79
2021/11/24 09:49:49;;;;;;;4.13;2.70;;;;;;;;;;5087499;28;20065;-82
2021/11/24 09:52:16;;;;;;;5.28;2.60;;;;;;;;;;5073278;28;20048;-80
2021/11/24 09:54:42;;;;;;;6.70;3.00;;;;;;;;;;5087770;28;20488;-80
2021/11/24 09:57:08;;;;;;;8.98;3.53;;;;;;;;;;5093204;28;20091;-79
2021/11/24 09:59:34;;;;;;;5.97;3.10;;;;;;;;;;5068611;28;20045;-77
2021/11/24 10:02:01;;;;;;;5.97;3.65;;;;;;;;;;5077158;28;20055;-77
2021/11/24 10:04:27;;;;;;;9.05;3.38;;;;;;;;;;5043912;28;20048;-83
2021/11/24 10:06:53;;;;;;;7.00;3.50;;;;;;;;;;5094813;28;20491;-79
2021/11/24 10:09:19;;;;;;;5.22;3.10;;;;;;;;;;5084859;28;20052;-79
2021/11/24 10:11:45;;;;;;;4.72;3.20;;;;;;;;;;5067111;28;20087;-79
2021/11/24 10:14:11;;;;;;;6.70;2.75;;;;;;;;;;5063552;28;20083;-80
2021/11/24 10:16:37;;;;;;;5.28;2.50;;;;;;;;;;5067938;28;20045;-79
2021/11/24 10:19:09;;;;;;;7.30;3.30;;;;;;;;;;5065026;28;20058;-79
2021/11/24 10:21:35;;;;;;;5.32;2.45;;;;;;;;;;5066960;28;20052;-79
2021/11/24 10:24:03;;;;;;;5.00;2.13;;;;;;;;;;5081864;28;20041;-80
2021/11/24 10:26:32;;;;;;;6.22;2.60;;;;;;;;;;5092967;28;20045;-80
2021/11/24 10:29:01;;;;;;;6.88;2.90;;;;;;;;;;5065971;28;20040;-81
2021/11/24 10:31:33;;;;;;;5.70;2.45;;;;;;;;;;5073091;28;20044;-82
2021/11/24 10:34:00;;;;;;;5.20;2.20;;;;;;;;;;5040190;28;20049;-83
2021/11/24 10:36:27;;;;;;;5.55;3.17;;;;;;;;;;5071116;28;20131;-81
2021/11/24 10:38:54;;;;;;;5.80;2.38;;;;;;;;;;5098259;28;20462;-82
2021/11/24 10:41:39;;;;;;;6.65;2.80;;;;;;;;;;5068260;28;20053;-81
2021/11/24 10:44:06;;;;;;;4.32;2.42;;;;;;;;;;5062752;28;20106;-83
2021/11/24 10:46:33;;;;;;;4.03;2.30;;;;;;;;;;5043275;28;20084;-83
2021/11/24 10:49:02;;;;;;;8.40;3.20;;;;;;;;;;5036010;28;20123;-81
2021/11/24 10:51:34;;;;;;;3.30;2.25;;;;;;;;;;5068026;28;20040;-81
2021/11/24 10:54:19;;;;;;;6.32;2.70;;;;;;;;;;5067300;28;20055;-82
2021/11/24 10:57:04;;;;;;;4.75;2.15;;;;;;;;;;5054322;28;20243;-79
2021/11/24 10:59:32;;;;;;;5.85;2.47;;;;;;;;;;5067500;28;20508;-80
2021/11/24 11:02:16;;;;;;;7.50;2.70;;;;;;;;;;5049250;28;20076;-81
2021/11/24 11:04:58;;;;;;;5.82;2.85;;;;;;;;;;5069066;28;20044;-82
2021/11/24 11:07:24;;;;;;;5.43;2.60;;;;;;;;;;5051653;28;20148;-82
2021/11/24 11:09:59;;;;;;;9.50;2.30;;;;;;;;;;5066049;28;20127;-85
2021/11/24 11:12:29;;;;;;;5.07;2.10;;;;;;;;;;5052428;28;20056;-85
2021/11/24 11:14:55;;;;;;;6.32;2.60;;;;;;;;;;5062070;28;20049;-80
2021/11/24 11:17:21;;;;;;;5.95;2.45;;;;;;;;;;5067081;28;20391;-82
2021/11/24 11:19:49;;;;;;;5.93;2.50;;;;;;;;;;5067435;28;20194;-82
2021/11/24 11:22:16;;;;;;;7.88;2.88;;;;;;;;;;5050629;28;20391;-81
2021/11/24 11:24:42;;;;;;;6.78;2.70;;;;;;;;;;5078703;28;20049;-83
2021/11/24 11:27:09;;;;;;;6.80;2.28;;;;;;;;;;5077850;28;20045;-90
2021/11/24 11:29:36;;;;;;;6.05;2.47;;;;;;;;;;5070919;28;20095;-88
2021/11/24 11:32:02;;;;;;;7.18;2.50;;;;;;;;;;5054387;28;20040;-90
2021/11/24 11:34:29;;;;;;;4.65;2.92;;;;;;;;;;5053671;28;20040;-87
2021/11/24 11:36:55;;;;;;;4.90;2.03;;;;;;;;;;5070370;28;20051;-84
2021/11/24 11:39:22;;;;;;;6.35;2.47;;;;;;;;;;5068086;28;21597;-82
2021/11/24 11:41:50;;;;;;;4.53;2.13;;;;;;;;;;5069944;28;20041;-81
2021/11/24 11:44:18;;;;;;;4.32;2.00;;;;;;;;;;5051382;28;20056;-82
2021/11/24 11:46:50;;;;;;;3.83;2.05;;;;;;;;;;5066745;28;20051;-82
2021/11/24 11:49:18;;;;;;;6.82;2.75;;;;;;;;;;5050135;28;20087;-81
2021/11/24 11:51:46;;;;;;;8.80;2.58;;;;;;;;;;5051608;28;20119;-82
2021/11/24 11:54:13;;;;;;;3.72;1.90;;;;;;;;;;5067864;28;20123;-83
2021/11/24 11:56:46;;;;;;;3.95;2.17;;;;;;;;;;5052226;28;20119;-83
2021/11/24 11:59:26;;;;;;;4.90;2.67;;;;;;;;;;5069405;28;20484;-82
2021/11/24 12:01:59;;;;;;;6.05;2.38;;;;;;;;;;5036836;28;20032;-81
2021/11/24 12:04:27;;;;;;;;;;;;;;;;;;5052795;28;20044;-83
2021/11/24 12:06:53;;;;;;;7.65;2.92;;;;;;;;;;5050125;28;20351;-78
2021/11/24 12:09:29;;;;;;;7.53;2.58;;;;;;;;;;5048549;28;20049;-79
2021/11/24 12:12:01;;;;;;;5.10;2.15;;;;;;;;;;5068075;28;20048;-79
2021/11/24 12:14:40;;;;;;;4.88;2.45;;;;;;;;;;5065064;28;20128;-82
2021/11/24 12:17:25;;;;;;;7.07;2.33;;;;;;;;;;5084203;28;20052;-79
2021/11/24 12:19:51;;;;;;;6.22;2.30;;;;;;;;;;5050472;28;20067;-78
2021/11/24 12:22:17;;;;;;;6.18;2.22;;;;;;;;;;5050621;28;20519;-77
2021/11/24 12:24:46;;;;;;;3.65;2.10;;;;;;;;;;5054574;28;20118;-83
2021/11/24 12:27:12;;;;;;;4.72;2.40;;;;;;;;;;5051915;28;20048;-79
2021/11/24 12:29:46;;;;;;;5.57;2.30;;;;;;;;;;5102255;28;20036;-80
2021/11/24 12:32:13;;;;;;;4.03;2.40;;;;;;;;;;5051647;28;20044;-78
2021/11/24 12:34:47;;;;;;;5.30;2.55;;;;;;;;;;5066538;28;20492;-79
2021/11/24 12:37:22;;;;;;;9.73;2.53;;;;;;;;;;5065630;28;20384;-76
2021/11/24 12:39:49;;;;;;;5.55;2.05;;;;;;;;;;5051159;28;20114;-77
2021/11/24 12:42:16;;;;;;;4.93;2.38;;;;;;;;;;5067547;28;20123;-75
2021/11/24 12:44:50;;;;;;;4.53;2.33;;;;;;;;;;5063025;28;20098;-77
2021/11/24 12:47:16;;;;;;;3.90;2.22;;;;;;;;;;5079442;28;20051;-71
2021/11/24 12:49:42;;;;;;;3.72;2.50;;;;;;;;;;5049176;28;20127;-79
2021/11/24 12:52:08;;;;;;;3.13;2.08;;;;;;;;;;5049235;28;20045;-73
2021/11/24 12:54:34;;;;;;;4.13;2.17;;;;;;;;;;5064767;28;20186;-74
2021/11/24 12:57:01;;;;;;;4.82;2.90;;;;;;;;;;5065403;28;20051;-73
2021/11/24 12:59:29;;;;;;;4.82;2.60;;;;;;;;;;5065343;28;20139;-73
2021/11/24 13:01:57;;;;;;;4.60;2.45;;;;;;;;;;5067291;28;20041;-73
2021/11/24 13:04:30;;;;;;;5.03;2.60;;;;;;;;;;5063044;28;20044;-83
2021/11/24 13:06:56;;;;;;;5.25;3.08;;;;;;;;;;5049251;28;20166;-81
2021/11/24 13:09:22;;;;;;;6.97;3.40;;;;;;;;;;5049992;28;20479;-81
2021/11/24 13:11:52;;;;;;;6.53;3.78;;;;;;;;;;5065116;28;20052;-81
2021/11/24 13:14:19;;;;;;;5.95;4.35;;;;;;;;;;5050480;28;20055;-80
2021/11/24 13:16:45;;;;;;;5.40;3.33;;;;;;;;;;5064994;28;20044;-80
2021/11/24 13:19:11;;;;;;;5.32;2.97;;;;;;;;;;5049567;28;20049;-83
2021/11/24 13:21:48;;;;;;;7.57;3.05;;;;;;;;;;5063726;28;20483;-83
2021/11/24 13:24:14;;;;;;;7.07;2.67;;;;;;;;;;5069566;28;20055;-75
2021/11/24 13:26:52;;;;;;;4.25;3.17;;;;;;;;;;5065966;28;20471;-81
2021/11/24 13:29:19;;;;;;;6.72;3.60;;;;;;;;;;5062750;28;20091;-81
2021/11/24 13:31:45;;;;;;;4.68;2.95;;;;;;;;;;5064905;28;20119;-82
2021/11/24 13:34:12;;;;;;;7.82;2.80;;;;;;;;;;5085316;28;20048;-80
2021/11/24 13:36:45;;;;;;;5.10;3.00;;;;;;;;;;5071366;28;21698;-82
2021/11/24 13:39:11;;;;;;;4.37;3.20;;;;;;;;;;5065399;28;20070;-81
2021/11/24 13:41:38;;;;;;;4.25;2.90;;;;;;;;;;5053004;28;20310;-83
2021/11/24 13:44:06;;;;;;;3.55;2.88;;;;;;;;;;5070071;28;20059;-74
2021/11/24 13:46:33;;;;;;;5.70;3.20;;;;;;;;;;5064896;28;20372;-76
2021/11/24 13:49:04;;;;;;;4.55;3.10;;;;;;;;;;5068704;28;20075;-75
2021/11/24 13:51:31;;;;;;;4.95;3.10;;;;;;;;;;5070285;28;20056;-85
2021/11/24 13:54:08;;;;;;;3.60;3.22;;;;;;;;;;5053287;28;20051;-80
2021/11/24 13:56:42;;;;;;;6.20;3.22;;;;;;;;;;5073197;28;20050;-81
2021/11/24 13:59:09;;;;;;;4.07;3.03;;;;;;;;;;5073295;28;20043;-80
2021/11/24 14:01:37;;;;;;;5.88;2.97;;;;;;;;;;5086968;28;20048;-81
2021/11/24 14:04:07;;;;;;;4.07;2.67;;;;;;;;;;5078857;28;20605;-82
2021/11/24 14:06:33;;;;;;;5.35;3.13;;;;;;;;;;5085760;28;20104;-79
2021/11/24 14:09:18;;;;;;;7.95;3.08;;;;;;;;;;5053200;28;20052;-75
2021/11/24 14:11:58;;;;;;;4.47;3.35;;;;;;;;;;5068447;28;20052;-80
2021/11/24 14:14:27;;;;;;;4.38;3.20;;;;;;;;;;5076583;28;20074;-77
2021/11/24 14:16:58;;;;;;;6.38;3.40;;;;;;;;;;5053142;28;20041;-86
2021/11/24 14:19:25;;;;;;;7.93;3.40;;;;;;;;;;5081160;28;20140;-83
2021/11/24 14:21:55;;;;;;;3.80;2.72;;;;;;;;;;5053982;28;20119;-85
2021/11/24 14:24:22;;;;;;;5.78;3.17;;;;;;;;;;5070146;28;20059;-84
2021/11/24 14:26:49;;;;;;;5.95;3.05;;;;;;;;;;5075384;28;20044;-83
2021/11/24 14:29:15;;;;;;;5.18;3.28;;;;;;;;;;5053377;28;20044;-84
2021/11/24 14:31:41;;;;;;;4.30;2.97;;;;;;;;;;5055013;28;20367;-88
2021/11/24 14:34:07;;;;;;;6.05;2.30;;;;;;;;;;5074793;28;20041;-84
2021/11/24 14:36:35;;;;;;;3.60;2.53;;;;;;;;;;5081282;28;20057;-85
2021/11/24 14:39:03;;;;;;;5.85;2.88;;;;;;;;;;5084463;28;20447;-85
2021/11/24 14:41:29;;;;;;;5.97;2.70;;;;;;;;;;5079601;28;20037;-84